Bookmark and Share
Track history (hours):
 

MSC Maeva

Last reported at 2014-Apr-23 14:26 UTC. Time now 2014-Apr-23 15:27 UTC.
Position N 30°28' E 122°39'.

Type: Ship (hazmat cat A). MMSI: 371851000.

NotesDate/timePositionNaut miles runAvg speedWind from/ knotsBaromVisibWave heightAir tempDewpointWater temp
2014-Apr-23 14:26N 30°28' E 122°39'5 4.1
2014-Apr-23 13:06N 30°27' E 122°45'4 7.2
2014-Apr-23 12:33N 30°25' E 122°49'1814.1
2014-Apr-23 11:19N 30°13' E 123°04'3015.6
2014-Apr-23 09:23N 29°50' E 122°42'1415.0
2014-Apr-23 08:28N 29°40' E 122°31'1213.3
2014-Apr-23 07:33N 29°45' E 122°18'1111.1
2014-Apr-23 06:33N 29°54' E 122°10'7 6.6
2014-Apr-23 05:27N 29°54' E 122°02'0 0.0
2014-Apr-23 04:27N 29°54' E 122°02'0 0.0
2014-Apr-23 03:33N 29°54' E 122°02'0 0.1
2014-Apr-23 02:33N 29°54' E 122°02'0 0.0
2014-Apr-23 01:27N 29°54' E 122°02'0 0.0
2014-Apr-23 00:33N 29°54' E 122°02'0 0.0
2014-Apr-22 23:33N 29°54' E 122°02'0 0.0
2014-Apr-22 22:27N 29°54' E 122°02'0 0.0
2014-Apr-22 21:33N 29°54' E 122°02'0 0.0
2014-Apr-22 20:33N 29°54' E 122°02'0 0.0
2014-Apr-22 19:33N 29°54' E 122°02'0 0.0
2014-Apr-22 18:27N 29°54' E 122°02'2 1.8
2014-Apr-22 17:33N 29°54' E 122°04'1010.0
2014-Apr-22 16:34N 29°49' E 122°13'8 8.4
2014-Apr-22 15:33N 29°44' E 122°21'6 5.6
2014-Apr-22 14:33N 29°45' E 122°28'3 2.9
2014-Apr-22 13:33N 29°44' E 122°31'2 1.5
2014-Apr-22 12:33N 29°44' E 122°33'3 2.9
2014-Apr-22 11:34N 29°45' E 122°36'5 5.2
2014-Apr-22 10:33N 29°45' E 122°42'5 5.2
2014-Apr-22 09:33N 29°46' E 122°48'  
2014-Apr-15 03:34N 33°52' E 128°25'1715.9
2014-Apr-15 02:30N 33°39' E 128°12'  

Dump ship's entire track history

sailing weather and tide predictions

MSC Maeva — H9TF — position and weather